sensor_id;sensor_type;location;lat;lon;timestamp;P1;durP1;ratioP1;P2;durP2;ratioP2
18100;SDS011;9177;49.156;8.142;2024-03-02T00:01:25;3.40;;;3.10;;
18100;SDS011;9177;49.156;8.142;2024-03-02T00:03:52;3.90;;;3.27;;
18100;SDS011;9177;49.156;8.142;2024-03-02T00:06:19;4.17;;;3.30;;
18100;SDS011;9177;49.156;8.142;2024-03-02T00:08:47;2.97;;;2.77;;
18100;SDS011;9177;49.156;8.142;2024-03-02T00:11:17;3.67;;;2.97;;
18100;SDS011;9177;49.156;8.142;2024-03-02T00:13:47;3.40;;;3.10;;
18100;SDS011;9177;49.156;8.142;2024-03-02T00:16:14;3.83;;;3.50;;
18100;SDS011;9177;49.156;8.142;2024-03-02T00:18:43;3.13;;;2.90;;
18100;SDS011;9177;49.156;8.142;2024-03-02T00:21:10;3.27;;;2.97;;
18100;SDS011;9177;49.156;8.142;2024-03-02T00:23:38;3.37;;;3.07;;
18100;SDS011;9177;49.156;8.142;2024-03-02T00:26:05;3.90;;;3.17;;
18100;SDS011;9177;49.156;8.142;2024-03-02T00:28:35;3.60;;;3.30;;
18100;SDS011;9177;49.156;8.142;2024-03-02T00:31:04;3.37;;;2.90;;
18100;SDS011;9177;49.156;8.142;2024-03-02T00:33:33;3.50;;;2.73;;
18100;SDS011;9177;49.156;8.142;2024-03-02T00:36:00;4.03;;;3.00;;
18100;SDS011;9177;49.156;8.142;2024-03-02T00:38:28;3.40;;;3.10;;
18100;SDS011;9177;49.156;8.142;2024-03-02T00:40:56;3.10;;;2.80;;
18100;SDS011;9177;49.156;8.142;2024-03-02T00:43:45;3.87;;;2.83;;
18100;SDS011;9177;49.156;8.142;2024-03-02T00:46:15;3.33;;;3.03;;
18100;SDS011;9177;49.156;8.142;2024-03-02T00:48:47;3.00;;;2.80;;
18100;SDS011;9177;49.156;8.142;2024-03-02T00:51:17;2.80;;;2.60;;
18100;SDS011;9177;49.156;8.142;2024-03-02T00:53:44;4.50;;;3.10;;
18100;SDS011;9177;49.156;8.142;2024-03-02T00:56:11;3.23;;;3.00;;
18100;SDS011;9177;49.156;8.142;2024-03-02T00:58:38;3.23;;;2.93;;
18100;SDS011;9177;49.156;8.142;2024-03-02T01:01:07;3.17;;;2.60;;
18100;SDS011;9177;49.156;8.142;2024-03-02T01:03:34;3.47;;;3.17;;
18100;SDS011;9177;49.156;8.142;2024-03-02T01:06:02;3.20;;;2.90;;
18100;SDS011;9177;49.156;8.142;2024-03-02T01:08:30;3.07;;;2.80;;
18100;SDS011;9177;49.156;8.142;2024-03-02T01:10:57;2.97;;;2.67;;
18100;SDS011;9177;49.156;8.142;2024-03-02T01:13:24;2.80;;;2.60;;
18100;SDS011;9177;49.156;8.142;2024-03-02T01:15:51;3.10;;;2.80;;
18100;SDS011;9177;49.156;8.142;2024-03-02T01:18:19;3.57;;;2.87;;
18100;SDS011;9177;49.156;8.142;2024-03-02T01:20:47;2.70;;;2.50;;
18100;SDS011;9177;49.156;8.142;2024-03-02T01:23:17;2.70;;;2.50;;
18100;SDS011;9177;49.156;8.142;2024-03-02T01:25:44;3.20;;;2.90;;
18100;SDS011;9177;49.156;8.142;2024-03-02T01:28:11;2.63;;;2.43;;
18100;SDS011;9177;49.156;8.142;2024-03-02T01:30:38;3.47;;;2.77;;
18100;SDS011;9177;49.156;8.142;2024-03-02T01:33:05;3.00;;;2.80;;
18100;SDS011;9177;49.156;8.142;2024-03-02T01:35:33;2.73;;;2.53;;
18100;SDS011;9177;49.156;8.142;2024-03-02T01:38:01;2.93;;;2.73;;
18100;SDS011;9177;49.156;8.142;2024-03-02T01:40:28;2.73;;;2.53;;
18100;SDS011;9177;49.156;8.142;2024-03-02T01:42:55;3.00;;;2.60;;
18100;SDS011;9177;49.156;8.142;2024-03-02T01:45:23;3.07;;;2.77;;
18100;SDS011;9177;49.156;8.142;2024-03-02T01:47:50;2.80;;;2.60;;
18100;SDS011;9177;49.156;8.142;2024-03-02T01:50:23;3.30;;;2.80;;
18100;SDS011;9177;49.156;8.142;2024-03-02T01:52:52;2.57;;;2.37;;
18100;SDS011;9177;49.156;8.142;2024-03-02T01:55:19;2.50;;;2.30;;
18100;SDS011;9177;49.156;8.142;2024-03-02T01:57:46;3.23;;;2.93;;
18100;SDS011;9177;49.156;8.142;2024-03-02T02:00:14;2.67;;;2.47;;
18100;SDS011;9177;49.156;8.142;2024-03-02T02:02:41;2.63;;;2.43;;
18100;SDS011;9177;49.156;8.142;2024-03-02T02:05:09;2.63;;;2.38;;
18100;SDS011;9177;49.156;8.142;2024-03-02T02:07:36;2.53;;;2.33;;
18100;SDS011;9177;49.156;8.142;2024-03-02T02:10:05;2.57;;;2.37;;
18100;SDS011;9177;49.156;8.142;2024-03-02T02:12:33;4.03;;;2.60;;
18100;SDS011;9177;49.156;8.142;2024-03-02T02:15:00;2.83;;;2.63;;
18100;SDS011;9177;49.156;8.142;2024-03-02T02:17:27;2.87;;;2.57;;
18100;SDS011;9177;49.156;8.142;2024-03-02T02:19:53;2.83;;;2.63;;
18100;SDS011;9177;49.156;8.142;2024-03-02T02:22:22;2.70;;;2.50;;
18100;SDS011;9177;49.156;8.142;2024-03-02T02:24:48;2.77;;;2.40;;
18100;SDS011;9177;49.156;8.142;2024-03-02T02:27:15;2.60;;;2.40;;
18100;SDS011;9177;49.156;8.142;2024-03-02T02:29:42;2.87;;;2.43;;
18100;SDS011;9177;49.156;8.142;2024-03-02T02:32:09;3.00;;;2.50;;
18100;SDS011;9177;49.156;8.142;2024-03-02T02:34:36;2.60;;;2.40;;
18100;SDS011;9177;49.156;8.142;2024-03-02T02:37:03;2.70;;;2.50;;
18100;SDS011;9177;49.156;8.142;2024-03-02T02:39:31;2.90;;;2.70;;
18100;SDS011;9177;49.156;8.142;2024-03-02T02:41:58;2.70;;;2.27;;
18100;SDS011;9177;49.156;8.142;2024-03-02T02:44:26;2.87;;;2.50;;
18100;SDS011;9177;49.156;8.142;2024-03-02T02:46:53;2.60;;;2.40;;
18100;SDS011;9177;49.156;8.142;2024-03-02T02:49:19;2.40;;;2.20;;
18100;SDS011;9177;49.156;8.142;2024-03-02T02:51:46;2.50;;;2.30;;
18100;SDS011;9177;49.156;8.142;2024-03-02T02:54:13;2.03;;;1.93;;
18100;SDS011;9177;49.156;8.142;2024-03-02T02:56:41;2.50;;;2.30;;
18100;SDS011;9177;49.156;8.142;2024-03-02T02:59:08;2.10;;;1.90;;
18100;SDS011;9177;49.156;8.142;2024-03-02T03:01:35;2.30;;;2.10;;
18100;SDS011;9177;49.156;8.142;2024-03-02T03:04:02;2.50;;;2.17;;
18100;SDS011;9177;49.156;8.142;2024-03-02T03:06:29;2.60;;;2.40;;
18100;SDS011;9177;49.156;8.142;2024-03-02T03:08:56;2.13;;;2.00;;
18100;SDS011;9177;49.156;8.142;2024-03-02T03:11:23;2.50;;;2.30;;
18100;SDS011;9177;49.156;8.142;2024-03-02T03:13:52;2.20;;;2.00;;
18100;SDS011;9177;49.156;8.142;2024-03-02T03:16:20;2.30;;;2.10;;
18100;SDS011;9177;49.156;8.142;2024-03-02T03:18:47;2.50;;;2.30;;
18100;SDS011;9177;49.156;8.142;2024-03-02T03:21:16;2.30;;;2.10;;
18100;SDS011;9177;49.156;8.142;2024-03-02T03:23:43;2.33;;;2.13;;
18100;SDS011;9177;49.156;8.142;2024-03-02T03:26:10;2.23;;;2.03;;
18100;SDS011;9177;49.156;8.142;2024-03-02T03:28:37;2.30;;;2.10;;
18100;SDS011;9177;49.156;8.142;2024-03-02T03:31:05;1.90;;;1.80;;
18100;SDS011;9177;49.156;8.142;2024-03-02T03:33:32;2.20;;;1.97;;
18100;SDS011;9177;49.156;8.142;2024-03-02T03:35:59;2.53;;;2.33;;
18100;SDS011;9177;49.156;8.142;2024-03-02T03:38:28;2.00;;;1.90;;
18100;SDS011;9177;49.156;8.142;2024-03-02T03:40:55;2.20;;;2.00;;
18100;SDS011;9177;49.156;8.142;2024-03-02T03:43:22;2.30;;;2.10;;
18100;SDS011;9177;49.156;8.142;2024-03-02T03:45:48;2.17;;;1.93;;
18100;SDS011;9177;49.156;8.142;2024-03-02T03:48:17;2.50;;;2.20;;
18100;SDS011;9177;49.156;8.142;2024-03-02T03:50:44;2.47;;;2.10;;
18100;SDS011;9177;49.156;8.142;2024-03-02T03:53:11;2.80;;;1.90;;
18100;SDS011;9177;49.156;8.142;2024-03-02T03:55:39;2.07;;;1.87;;
18100;SDS011;9177;49.156;8.142;2024-03-02T03:58:06;2.33;;;1.90;;
18100;SDS011;9177;49.156;8.142;2024-03-02T04:00:33;2.40;;;2.00;;
18100;SDS011;9177;49.156;8.142;2024-03-02T04:03:00;1.77;;;1.67;;
18100;SDS011;9177;49.156;8.142;2024-03-02T04:05:28;2.90;;;2.10;;
18100;SDS011;9177;49.156;8.142;2024-03-02T04:07:55;2.10;;;2.00;;
18100;SDS011;9177;49.156;8.142;2024-03-02T04:10:22;2.03;;;1.83;;
18100;SDS011;9177;49.156;8.142;2024-03-02T04:12:49;2.10;;;1.90;;
18100;SDS011;9177;49.156;8.142;2024-03-02T04:15:16;1.87;;;1.77;;
18100;SDS011;9177;49.156;8.142;2024-03-02T04:17:44;1.80;;;1.70;;
18100;SDS011;9177;49.156;8.142;2024-03-02T04:20:11;2.20;;;2.00;;
18100;SDS011;9177;49.156;8.142;2024-03-02T04:22:40;2.00;;;1.80;;
18100;SDS011;9177;49.156;8.142;2024-03-02T04:25:07;2.00;;;1.90;;
18100;SDS011;9177;49.156;8.142;2024-03-02T04:27:34;1.57;;;1.47;;
18100;SDS011;9177;49.156;8.142;2024-03-02T04:30:01;1.70;;;1.60;;
18100;SDS011;9177;49.156;8.142;2024-03-02T04:32:30;1.67;;;1.57;;
18100;SDS011;9177;49.156;8.142;2024-03-02T04:34:57;1.90;;;1.67;;
18100;SDS011;9177;49.156;8.142;2024-03-02T04:37:24;1.70;;;1.60;;
18100;SDS011;9177;49.156;8.142;2024-03-02T04:39:52;1.90;;;1.67;;
18100;SDS011;9177;49.156;8.142;2024-03-02T04:42:19;1.93;;;1.83;;
18100;SDS011;9177;49.156;8.142;2024-03-02T04:44:46;1.63;;;1.53;;
18100;SDS011;9177;49.156;8.142;2024-03-02T04:47:13;1.73;;;1.63;;
18100;SDS011;9177;49.156;8.142;2024-03-02T04:49:40;2.07;;;1.97;;
18100;SDS011;9177;49.156;8.142;2024-03-02T04:52:06;2.53;;;1.70;;
18100;SDS011;9177;49.156;8.142;2024-03-02T04:54:33;2.30;;;2.10;;
18100;SDS011;9177;49.156;8.142;2024-03-02T04:57:22;1.70;;;1.60;;
18100;SDS011;9177;49.156;8.142;2024-03-02T04:59:49;1.90;;;1.70;;
18100;SDS011;9177;49.156;8.142;2024-03-02T05:02:16;1.70;;;1.60;;
18100;SDS011;9177;49.156;8.142;2024-03-02T05:04:43;1.80;;;1.70;;
18100;SDS011;9177;49.156;8.142;2024-03-02T05:07:10;2.10;;;1.90;;
18100;SDS011;9177;49.156;8.142;2024-03-02T05:09:37;1.83;;;1.73;;
18100;SDS011;9177;49.156;8.142;2024-03-02T05:12:04;1.70;;;1.60;;
18100;SDS011;9177;49.156;8.142;2024-03-02T05:14:49;1.70;;;1.60;;
18100;SDS011;9177;49.156;8.142;2024-03-02T05:17:16;1.80;;;1.70;;
18100;SDS011;9177;49.156;8.142;2024-03-02T05:19:43;1.43;;;1.33;;
18100;SDS011;9177;49.156;8.142;2024-03-02T05:22:10;2.50;;;1.53;;
18100;SDS011;9177;49.156;8.142;2024-03-02T05:24:37;1.70;;;1.60;;
18100;SDS011;9177;49.156;8.142;2024-03-02T05:27:04;1.97;;;1.50;;
18100;SDS011;9177;49.156;8.142;2024-03-02T05:29:32;1.83;;;1.70;;
18100;SDS011;9177;49.156;8.142;2024-03-02T05:32:00;1.83;;;1.73;;
18100;SDS011;9177;49.156;8.142;2024-03-02T05:34:27;1.90;;;1.80;;
18100;SDS011;9177;49.156;8.142;2024-03-02T05:36:54;1.83;;;1.60;;
18100;SDS011;9177;49.156;8.142;2024-03-02T05:39:21;1.70;;;1.60;;
18100;SDS011;9177;49.156;8.142;2024-03-02T05:41:48;1.80;;;1.70;;
18100;SDS011;9177;49.156;8.142;2024-03-02T05:44:15;1.70;;;1.60;;
18100;SDS011;9177;49.156;8.142;2024-03-02T05:46:41;1.43;;;1.33;;
18100;SDS011;9177;49.156;8.142;2024-03-02T05:49:10;1.87;;;1.73;;
18100;SDS011;9177;49.156;8.142;2024-03-02T05:51:37;1.77;;;1.67;;
18100;SDS011;9177;49.156;8.142;2024-03-02T05:54:04;2.07;;;1.73;;
18100;SDS011;9177;49.156;8.142;2024-03-02T05:56:31;1.40;;;1.30;;
18100;SDS011;9177;49.156;8.142;2024-03-02T05:58:57;2.00;;;1.90;;
18100;SDS011;9177;49.156;8.142;2024-03-02T06:01:37;2.23;;;1.90;;
18100;SDS011;9177;49.156;8.142;2024-03-02T06:04:04;1.77;;;1.67;;
18100;SDS011;9177;49.156;8.142;2024-03-02T06:06:33;1.70;;;1.57;;
18100;SDS011;9177;49.156;8.142;2024-03-02T06:08:59;1.83;;;1.52;;
18100;SDS011;9177;49.156;8.142;2024-03-02T06:11:27;1.50;;;1.40;;
18100;SDS011;9177;49.156;8.142;2024-03-02T06:13:54;1.63;;;1.53;;
18100;SDS011;9177;49.156;8.142;2024-03-02T06:16:21;1.70;;;1.60;;
18100;SDS011;9177;49.156;8.142;2024-03-02T06:18:48;1.63;;;1.53;;
18100;SDS011;9177;49.156;8.142;2024-03-02T06:21:15;2.00;;;1.80;;
18100;SDS011;9177;49.156;8.142;2024-03-02T06:23:44;1.80;;;1.70;;
18100;SDS011;9177;49.156;8.142;2024-03-02T06:26:11;2.07;;;1.87;;
18100;SDS011;9177;49.156;8.142;2024-03-02T06:28:38;1.60;;;1.50;;
18100;SDS011;9177;49.156;8.142;2024-03-02T06:31:05;1.70;;;1.60;;
18100;SDS011;9177;49.156;8.142;2024-03-02T06:33:32;1.83;;;1.73;;
18100;SDS011;9177;49.156;8.142;2024-03-02T06:35:59;1.63;;;1.53;;
18100;SDS011;9177;49.156;8.142;2024-03-02T06:38:25;2.10;;;1.90;;
18100;SDS011;9177;49.156;8.142;2024-03-02T06:40:53;1.63;;;1.53;;
18100;SDS011;9177;49.156;8.142;2024-03-02T06:43:21;1.60;;;1.50;;
18100;SDS011;9177;49.156;8.142;2024-03-02T06:45:48;1.63;;;1.30;;
18100;SDS011;9177;49.156;8.142;2024-03-02T06:48:15;1.83;;;1.70;;
18100;SDS011;9177;49.156;8.142;2024-03-02T06:50:45;2.67;;;1.70;;
18100;SDS011;9177;49.156;8.142;2024-03-02T06:53:12;2.67;;;1.80;;
18100;SDS011;9177;49.156;8.142;2024-03-02T06:55:43;2.33;;;1.67;;
18100;SDS011;9177;49.156;8.142;2024-03-02T06:58:12;1.83;;;1.73;;
18100;SDS011;9177;49.156;8.142;2024-03-02T07:00:40;1.50;;;1.40;;
18100;SDS011;9177;49.156;8.142;2024-03-02T07:03:07;1.87;;;1.77;;
18100;SDS011;9177;49.156;8.142;2024-03-02T07:05:34;1.90;;;1.80;;
18100;SDS011;9177;49.156;8.142;2024-03-02T07:08:01;1.70;;;1.60;;
18100;SDS011;9177;49.156;8.142;2024-03-02T07:10:30;1.70;;;1.60;;
18100;SDS011;9177;49.156;8.142;2024-03-02T07:12:57;2.10;;;1.70;;
18100;SDS011;9177;49.156;8.142;2024-03-02T07:15:25;1.57;;;1.47;;
18100;SDS011;9177;49.156;8.142;2024-03-02T07:18:19;1.60;;;1.50;;
18100;SDS011;9177;49.156;8.142;2024-03-02T07:20:46;1.70;;;1.60;;
18100;SDS011;9177;49.156;8.142;2024-03-02T07:23:15;1.90;;;1.80;;
18100;SDS011;9177;49.156;8.142;2024-03-02T07:25:41;1.57;;;1.47;;
18100;SDS011;9177;49.156;8.142;2024-03-02T07:28:08;1.80;;;1.70;;
18100;SDS011;9177;49.156;8.142;2024-03-02T07:30:36;1.77;;;1.37;;
18100;SDS011;9177;49.156;8.142;2024-03-02T07:33:04;1.80;;;1.70;;
18100;SDS011;9177;49.156;8.142;2024-03-02T07:35:31;1.73;;;1.63;;
18100;SDS011;9177;49.156;8.142;2024-03-02T07:37:58;3.20;;;1.60;;
18100;SDS011;9177;49.156;8.142;2024-03-02T07:40:26;2.53;;;1.90;;
18100;SDS011;9177;49.156;8.142;2024-03-02T07:42:52;1.63;;;1.53;;
18100;SDS011;9177;49.156;8.142;2024-03-02T07:45:20;1.67;;;1.30;;
18100;SDS011;9177;49.156;8.142;2024-03-02T07:47:48;2.00;;;1.83;;
18100;SDS011;9177;49.156;8.142;2024-03-02T07:50:15;2.23;;;1.90;;
18100;SDS011;9177;49.156;8.142;2024-03-02T07:52:42;1.63;;;1.40;;
18100;SDS011;9177;49.156;8.142;2024-03-02T07:55:09;1.50;;;1.30;;
18100;SDS011;9177;49.156;8.142;2024-03-02T07:57:35;1.97;;;1.70;;
18100;SDS011;9177;49.156;8.142;2024-03-02T08:00:03;1.83;;;1.73;;
18100;SDS011;9177;49.156;8.142;2024-03-02T08:02:30;1.90;;;1.80;;
18100;SDS011;9177;49.156;8.142;2024-03-02T08:04:58;1.90;;;1.80;;
18100;SDS011;9177;49.156;8.142;2024-03-02T08:07:26;2.00;;;1.90;;
18100;SDS011;9177;49.156;8.142;2024-03-02T08:09:53;1.57;;;1.47;;
18100;SDS011;9177;49.156;8.142;2024-03-02T08:12:20;1.60;;;1.50;;
18100;SDS011;9177;49.156;8.142;2024-03-02T08:14:48;1.90;;;1.73;;
18100;SDS011;9177;49.156;8.142;2024-03-02T08:17:15;1.90;;;1.60;;
18100;SDS011;9177;49.156;8.142;2024-03-02T08:19:42;1.40;;;1.30;;
18100;SDS011;9177;49.156;8.142;2024-03-02T08:22:11;1.90;;;1.80;;
18100;SDS011;9177;49.156;8.142;2024-03-02T08:24:38;2.23;;;1.70;;
18100;SDS011;9177;49.156;8.142;2024-03-02T08:27:05;1.77;;;1.67;;
18100;SDS011;9177;49.156;8.142;2024-03-02T08:29:32;1.80;;;1.63;;
18100;SDS011;9177;49.156;8.142;2024-03-02T08:31:59;1.60;;;1.40;;
18100;SDS011;9177;49.156;8.142;2024-03-02T08:34:25;1.53;;;1.43;;
18100;SDS011;9177;49.156;8.142;2024-03-02T08:36:52;1.50;;;1.40;;
18100;SDS011;9177;49.156;8.142;2024-03-02T08:39:21;1.47;;;1.37;;
18100;SDS011;9177;49.156;8.142;2024-03-02T08:41:48;1.38;;;1.27;;
18100;SDS011;9177;49.156;8.142;2024-03-02T08:44:15;1.83;;;1.67;;
18100;SDS011;9177;49.156;8.142;2024-03-02T08:46:42;1.80;;;1.50;;
18100;SDS011;9177;49.156;8.142;2024-03-02T08:49:10;1.80;;;1.70;;
18100;SDS011;9177;49.156;8.142;2024-03-02T08:51:37;1.60;;;1.50;;
18100;SDS011;9177;49.156;8.142;2024-03-02T08:54:04;1.42;;;1.33;;
18100;SDS011;9177;49.156;8.142;2024-03-02T08:56:33;2.07;;;1.87;;
18100;SDS011;9177;49.156;8.142;2024-03-02T08:59:01;1.70;;;1.60;;
18100;SDS011;9177;49.156;8.142;2024-03-02T09:01:28;1.70;;;1.60;;
18100;SDS011;9177;49.156;8.142;2024-03-02T09:03:55;1.67;;;1.40;;
18100;SDS011;9177;49.156;8.142;2024-03-02T09:06:22;1.70;;;1.60;;
18100;SDS011;9177;49.156;8.142;2024-03-02T09:08:49;3.17;;;1.70;;
18100;SDS011;9177;49.156;8.142;2024-03-02T09:11:17;2.05;;;1.85;;
18100;SDS011;9177;49.156;8.142;2024-03-02T09:13:45;2.00;;;1.80;;
18100;SDS011;9177;49.156;8.142;2024-03-02T09:16:12;2.88;;;1.77;;
18100;SDS011;9177;49.156;8.142;2024-03-02T09:18:39;2.25;;;2.10;;
18100;SDS011;9177;49.156;8.142;2024-03-02T09:21:06;2.00;;;1.80;;
18100;SDS011;9177;49.156;8.142;2024-03-02T09:23:33;2.13;;;1.92;;
18100;SDS011;9177;49.156;8.142;2024-03-02T09:26:00;2.38;;;2.10;;
18100;SDS011;9177;49.156;8.142;2024-03-02T09:28:28;2.27;;;1.80;;
18100;SDS011;9177;49.156;8.142;2024-03-02T09:30:55;2.70;;;2.20;;
18100;SDS011;9177;49.156;8.142;2024-03-02T09:33:22;2.43;;;2.17;;
18100;SDS011;9177;49.156;8.142;2024-03-02T09:35:49;2.67;;;2.08;;
18100;SDS011;9177;49.156;8.142;2024-03-02T09:38:16;2.93;;;2.47;;
18100;SDS011;9177;49.156;8.142;2024-03-02T09:40:43;3.60;;;2.53;;
18100;SDS011;9177;49.156;8.142;2024-03-02T09:43:10;2.63;;;2.30;;
18100;SDS011;9177;49.156;8.142;2024-03-02T09:45:37;2.40;;;2.20;;
18100;SDS011;9177;49.156;8.142;2024-03-02T09:48:06;2.20;;;2.00;;
18100;SDS011;9177;49.156;8.142;2024-03-02T09:50:33;2.83;;;2.57;;
18100;SDS011;9177;49.156;8.142;2024-03-02T09:53:00;2.80;;;2.33;;
18100;SDS011;9177;49.156;8.142;2024-03-02T09:55:28;2.60;;;2.20;;
18100;SDS011;9177;49.156;8.142;2024-03-02T09:57:55;2.30;;;2.10;;
18100;SDS011;9177;49.156;8.142;2024-03-02T10:00:22;3.10;;;2.27;;
18100;SDS011;9177;49.156;8.142;2024-03-02T10:02:50;2.50;;;2.27;;
18100;SDS011;9177;49.156;8.142;2024-03-02T10:05:24;2.80;;;2.10;;
18100;SDS011;9177;49.156;8.142;2024-03-02T10:07:58;2.90;;;2.20;;
18100;SDS011;9177;49.156;8.142;2024-03-02T10:10:34;2.30;;;2.10;;
18100;SDS011;9177;49.156;8.142;2024-03-02T10:13:05;2.70;;;2.30;;
18100;SDS011;9177;49.156;8.142;2024-03-02T10:15:34;2.20;;;2.00;;
18100;SDS011;9177;49.156;8.142;2024-03-02T10:18:02;5.73;;;2.60;;
18100;SDS011;9177;49.156;8.142;2024-03-02T10:20:31;3.87;;;3.30;;
18100;SDS011;9177;49.156;8.142;2024-03-02T10:23:09;3.03;;;2.60;;
18100;SDS011;9177;49.156;8.142;2024-03-02T10:25:37;4.17;;;3.20;;
18100;SDS011;9177;49.156;8.142;2024-03-02T10:28:04;5.20;;;3.50;;
18100;SDS011;9177;49.156;8.142;2024-03-02T10:30:32;5.53;;;3.80;;
18100;SDS011;9177;49.156;8.142;2024-03-02T10:32:59;4.63;;;3.70;;
18100;SDS011;9177;49.156;8.142;2024-03-02T10:35:27;4.90;;;3.80;;
18100;SDS011;9177;49.156;8.142;2024-03-02T10:37:57;7.77;;;4.03;;
18100;SDS011;9177;49.156;8.142;2024-03-02T10:40:26;3.80;;;3.40;;
18100;SDS011;9177;49.156;8.142;2024-03-02T10:42:53;4.60;;;3.60;;
18100;SDS011;9177;49.156;8.142;2024-03-02T10:45:21;6.57;;;3.63;;
18100;SDS011;9177;49.156;8.142;2024-03-02T10:47:49;3.90;;;3.50;;
18100;SDS011;9177;49.156;8.142;2024-03-02T10:50:17;6.43;;;3.87;;
18100;SDS011;9177;49.156;8.142;2024-03-02T10:52:44;5.63;;;3.30;;
18100;SDS011;9177;49.156;8.142;2024-03-02T10:55:13;6.13;;;4.20;;
18100;SDS011;9177;49.156;8.142;2024-03-02T10:57:47;5.57;;;4.32;;
18100;SDS011;9177;49.156;8.142;2024-03-02T11:00:17;6.83;;;4.83;;
18100;SDS011;9177;49.156;8.142;2024-03-02T11:02:50;6.28;;;5.65;;
18100;SDS011;9177;49.156;8.142;2024-03-02T11:05:22;6.23;;;5.57;;
18100;SDS011;9177;49.156;8.142;2024-03-02T11:07:53;9.18;;;7.03;;
18100;SDS011;9177;49.156;8.142;2024-03-02T11:10:28;7.90;;;7.07;;
18100;SDS011;9177;49.156;8.142;2024-03-02T11:13:00;7.45;;;6.72;;
18100;SDS011;9177;49.156;8.142;2024-03-02T11:15:29;9.15;;;8.32;;
18100;SDS011;9177;49.156;8.142;2024-03-02T11:17:57;9.13;;;8.43;;
18100;SDS011;9177;49.156;8.142;2024-03-02T11:20:24;13.80;;;12.60;;
18100;SDS011;9177;49.156;8.142;2024-03-02T11:22:53;16.08;;;14.88;;
18100;SDS011;9177;49.156;8.142;2024-03-02T11:25:24;16.23;;;14.88;;
18100;SDS011;9177;49.156;8.142;2024-03-02T11:28:03;13.48;;;12.38;;
18100;SDS011;9177;49.156;8.142;2024-03-02T11:30:49;15.45;;;14.27;;
18100;SDS011;9177;49.156;8.142;2024-03-02T11:33:22;14.93;;;13.77;;
18100;SDS011;9177;49.156;8.142;2024-03-02T11:35:52;13.75;;;12.55;;
18100;SDS011;9177;49.156;8.142;2024-03-02T11:38:19;12.43;;;11.15;;
18100;SDS011;9177;49.156;8.142;2024-03-02T11:40:46;11.13;;;10.13;;
18100;SDS011;9177;49.156;8.142;2024-03-02T11:43:14;10.05;;;9.10;;
18100;SDS011;9177;49.156;8.142;2024-03-02T11:45:42;9.07;;;8.18;;
18100;SDS011;9177;49.156;8.142;2024-03-02T11:48:11;10.10;;;8.65;;
18100;SDS011;9177;49.156;8.142;2024-03-02T11:50:42;13.18;;;9.45;;
18100;SDS011;9177;49.156;8.142;2024-03-02T11:53:15;12.13;;;10.88;;
18100;SDS011;9177;49.156;8.142;2024-03-02T11:55:43;11.95;;;11.00;;
18100;SDS011;9177;49.156;8.142;2024-03-02T11:58:11;10.07;;;9.13;;
18100;SDS011;9177;49.156;8.142;2024-03-02T12:00:40;10.48;;;9.38;;
18100;SDS011;9177;49.156;8.142;2024-03-02T12:03:08;9.10;;;8.02;;
18100;SDS011;9177;49.156;8.142;2024-03-02T12:05:38;9.60;;;7.53;;
18100;SDS011;9177;49.156;8.142;2024-03-02T12:08:06;7.85;;;7.13;;
18100;SDS011;9177;49.156;8.142;2024-03-02T12:10:33;8.77;;;6.80;;
18100;SDS011;9177;49.156;8.142;2024-03-02T12:13:03;7.18;;;6.57;;
18100;SDS011;9177;49.156;8.142;2024-03-02T12:15:31;6.50;;;5.97;;
18100;SDS011;9177;49.156;8.142;2024-03-02T12:18:04;10.20;;;6.47;;
18100;SDS011;9177;49.156;8.142;2024-03-02T12:20:32;8.95;;;5.38;;
18100;SDS011;9177;49.156;8.142;2024-03-02T12:23:00;5.97;;;5.05;;
18100;SDS011;9177;49.156;8.142;2024-03-02T12:25:28;5.90;;;5.30;;
18100;SDS011;9177;49.156;8.142;2024-03-02T12:28:00;7.05;;;5.15;;
18100;SDS011;9177;49.156;8.142;2024-03-02T12:30:29;6.50;;;4.90;;
18100;SDS011;9177;49.156;8.142;2024-03-02T12:32:57;5.38;;;4.75;;
18100;SDS011;9177;49.156;8.142;2024-03-02T12:35:25;6.78;;;4.47;;
18100;SDS011;9177;49.156;8.142;2024-03-02T12:37:53;7.10;;;4.47;;
18100;SDS011;9177;49.156;8.142;2024-03-02T12:40:21;5.30;;;4.20;;
18100;SDS011;9177;49.156;8.142;2024-03-02T12:42:48;4.13;;;3.58;;
18100;SDS011;9177;49.156;8.142;2024-03-02T12:45:16;6.88;;;3.70;;
18100;SDS011;9177;49.156;8.142;2024-03-02T12:47:49;8.18;;;4.20;;
18100;SDS011;9177;49.156;8.142;2024-03-02T12:50:18;8.68;;;7.72;;
18100;SDS011;9177;49.156;8.142;2024-03-02T12:52:51;20.65;;;18.58;;
18100;SDS011;9177;49.156;8.142;2024-03-02T12:55:19;16.92;;;15.63;;
18100;SDS011;9177;49.156;8.142;2024-03-02T12:57:49;15.27;;;14.15;;
18100;SDS011;9177;49.156;8.142;2024-03-02T13:00:17;14.10;;;12.25;;
18100;SDS011;9177;49.156;8.142;2024-03-02T13:02:45;11.82;;;10.63;;
18100;SDS011;9177;49.156;8.142;2024-03-02T13:05:13;10.15;;;9.32;;
18100;SDS011;9177;49.156;8.142;2024-03-02T13:07:40;8.85;;;7.72;;
18100;SDS011;9177;49.156;8.142;2024-03-02T13:10:08;11.20;;;7.68;;
18100;SDS011;9177;49.156;8.142;2024-03-02T13:12:37;12.68;;;8.07;;
18100;SDS011;9177;49.156;8.142;2024-03-02T13:15:04;12.05;;;9.05;;
18100;SDS011;9177;49.156;8.142;2024-03-02T13:17:33;25.55;;;21.67;;
18100;SDS011;9177;49.156;8.142;2024-03-02T13:20:01;27.08;;;24.98;;
18100;SDS011;9177;49.156;8.142;2024-03-02T13:22:33;30.05;;;27.50;;
18100;SDS011;9177;49.156;8.142;2024-03-02T13:24:59;51.60;;;47.90;;
18100;SDS011;9177;49.156;8.142;2024-03-02T13:27:30;42.80;;;39.70;;
18100;SDS011;9177;49.156;8.142;2024-03-02T13:29:57;40.10;;;37.00;;
18100;SDS011;9177;49.156;8.142;2024-03-02T13:32:24;33.45;;;30.25;;
18100;SDS011;9177;49.156;8.142;2024-03-02T13:34:51;30.33;;;28.02;;
18100;SDS011;9177;49.156;8.142;2024-03-02T13:37:19;26.80;;;24.70;;
18100;SDS011;9177;49.156;8.142;2024-03-02T13:39:46;25.73;;;24.02;;
18100;SDS011;9177;49.156;8.142;2024-03-02T13:42:13;26.40;;;24.33;;
18100;SDS011;9177;49.156;8.142;2024-03-02T13:44:42;25.05;;;23.25;;
18100;SDS011;9177;49.156;8.142;2024-03-02T13:47:10;22.17;;;20.23;;
18100;SDS011;9177;49.156;8.142;2024-03-02T13:49:37;22.80;;;20.85;;
18100;SDS011;9177;49.156;8.142;2024-03-02T13:52:08;21.40;;;19.90;;
18100;SDS011;9177;49.156;8.142;2024-03-02T13:54:38;24.75;;;23.05;;
18100;SDS011;9177;49.156;8.142;2024-03-02T13:57:05;33.00;;;30.70;;
18100;SDS011;9177;49.156;8.142;2024-03-02T13:59:33;34.70;;;31.40;;
18100;SDS011;9177;49.156;8.142;2024-03-02T14:02:01;29.42;;;26.98;;
18100;SDS011;9177;49.156;8.142;2024-03-02T14:04:30;30.45;;;26.58;;
18100;SDS011;9177;49.156;8.142;2024-03-02T14:06:58;24.20;;;21.77;;
18100;SDS011;9177;49.156;8.142;2024-03-02T14:09:25;23.08;;;21.15;;
18100;SDS011;9177;49.156;8.142;2024-03-02T14:11:52;22.23;;;19.73;;
18100;SDS011;9177;49.156;8.142;2024-03-02T14:14:19;18.27;;;16.05;;
18100;SDS011;9177;49.156;8.142;2024-03-02T14:16:46;16.65;;;15.25;;
18100;SDS011;9177;49.156;8.142;2024-03-02T14:19:14;17.77;;;15.57;;
18100;SDS011;9177;49.156;8.142;2024-03-02T14:21:41;15.65;;;14.02;;
18100;SDS011;9177;49.156;8.142;2024-03-02T14:24:08;15.50;;;13.35;;
18100;SDS011;9177;49.156;8.142;2024-03-02T14:26:35;19.10;;;17.48;;
18100;SDS011;9177;49.156;8.142;2024-03-02T14:29:03;32.72;;;30.10;;
18100;SDS011;9177;49.156;8.142;2024-03-02T14:31:31;36.72;;;33.40;;
18100;SDS011;9177;49.156;8.142;2024-03-02T14:33:58;51.03;;;46.83;;
18100;SDS011;9177;49.156;8.142;2024-03-02T14:36:28;46.00;;;42.97;;
18100;SDS011;9177;49.156;8.142;2024-03-02T14:38:55;43.17;;;40.08;;
18100;SDS011;9177;49.156;8.142;2024-03-02T14:41:23;39.85;;;36.80;;
18100;SDS011;9177;49.156;8.142;2024-03-02T14:43:50;42.83;;;39.90;;
18100;SDS011;9177;49.156;8.142;2024-03-02T14:46:17;35.38;;;32.45;;
18100;SDS011;9177;49.156;8.142;2024-03-02T14:48:45;34.38;;;31.70;;
18100;SDS011;9177;49.156;8.142;2024-03-02T14:51:12;30.65;;;27.90;;
18100;SDS011;9177;49.156;8.142;2024-03-02T14:53:41;28.50;;;25.95;;
18100;SDS011;9177;49.156;8.142;2024-03-02T14:56:08;27.48;;;24.92;;
18100;SDS011;9177;49.156;8.142;2024-03-02T14:58:35;23.23;;;20.98;;
18100;SDS011;9177;49.156;8.142;2024-03-02T15:01:03;23.10;;;21.30;;